sensor_id;sensor_type;location;lat;lon;timestamp;P1;durP1;ratioP1;P2;durP2;ratioP2
14748;SDS011;7466;53.574;9.976;2022-12-20T00:02:22;8.93;;;8.13;;
14748;SDS011;7466;53.574;9.976;2022-12-20T00:04:49;8.83;;;8.03;;
14748;SDS011;7466;53.574;9.976;2022-12-20T00:07:17;8.60;;;7.80;;
14748;SDS011;7466;53.574;9.976;2022-12-20T00:09:44;8.70;;;7.90;;
14748;SDS011;7466;53.574;9.976;2022-12-20T00:12:11;8.60;;;7.80;;
14748;SDS011;7466;53.574;9.976;2022-12-20T00:14:37;8.83;;;7.87;;
14748;SDS011;7466;53.574;9.976;2022-12-20T00:17:04;8.10;;;7.30;;
14748;SDS011;7466;53.574;9.976;2022-12-20T00:19:32;10.77;;;7.53;;
14748;SDS011;7466;53.574;9.976;2022-12-20T00:21:59;8.83;;;7.77;;
14748;SDS011;7466;53.574;9.976;2022-12-20T00:24:26;8.70;;;7.80;;
14748;SDS011;7466;53.574;9.976;2022-12-20T00:26:52;9.17;;;7.30;;
14748;SDS011;7466;53.574;9.976;2022-12-20T00:29:19;9.20;;;8.30;;
14748;SDS011;7466;53.574;9.976;2022-12-20T00:31:52;8.77;;;7.60;;
14748;SDS011;7466;53.574;9.976;2022-12-20T00:34:19;9.30;;;8.40;;
14748;SDS011;7466;53.574;9.976;2022-12-20T00:36:47;8.23;;;7.40;;
14748;SDS011;7466;53.574;9.976;2022-12-20T00:39:14;10.90;;;8.40;;
14748;SDS011;7466;53.574;9.976;2022-12-20T00:41:41;8.97;;;8.07;;
14748;SDS011;7466;53.574;9.976;2022-12-20T00:44:07;9.40;;;8.40;;
14748;SDS011;7466;53.574;9.976;2022-12-20T00:46:35;8.77;;;7.87;;
14748;SDS011;7466;53.574;9.976;2022-12-20T00:49:01;9.67;;;8.67;;
14748;SDS011;7466;53.574;9.976;2022-12-20T00:51:28;10.53;;;8.77;;
14748;SDS011;7466;53.574;9.976;2022-12-20T00:53:58;9.53;;;7.80;;
14748;SDS011;7466;53.574;9.976;2022-12-20T00:56:24;8.93;;;8.03;;
14748;SDS011;7466;53.574;9.976;2022-12-20T00:58:51;8.60;;;7.83;;
14748;SDS011;7466;53.574;9.976;2022-12-20T01:01:19;8.77;;;7.97;;
14748;SDS011;7466;53.574;9.976;2022-12-20T01:03:46;9.77;;;8.40;;
14748;SDS011;7466;53.574;9.976;2022-12-20T01:06:13;10.30;;;8.60;;
14748;SDS011;7466;53.574;9.976;2022-12-20T01:08:40;12.37;;;8.63;;
14748;SDS011;7466;53.574;9.976;2022-12-20T01:11:10;9.90;;;8.80;;
14748;SDS011;7466;53.574;9.976;2022-12-20T01:13:42;9.43;;;8.07;;
14748;SDS011;7466;53.574;9.976;2022-12-20T01:16:11;11.27;;;8.73;;
14748;SDS011;7466;53.574;9.976;2022-12-20T01:18:40;9.20;;;8.00;;
14748;SDS011;7466;53.574;9.976;2022-12-20T01:21:07;9.67;;;8.77;;
14748;SDS011;7466;53.574;9.976;2022-12-20T01:23:35;11.87;;;8.43;;
14748;SDS011;7466;53.574;9.976;2022-12-20T01:26:03;9.60;;;8.60;;
14748;SDS011;7466;53.574;9.976;2022-12-20T01:28:34;9.63;;;8.67;;
14748;SDS011;7466;53.574;9.976;2022-12-20T01:31:03;9.33;;;8.43;;
14748;SDS011;7466;53.574;9.976;2022-12-20T01:33:32;11.10;;;8.60;;
14748;SDS011;7466;53.574;9.976;2022-12-20T01:35:59;12.00;;;8.07;;
14748;SDS011;7466;53.574;9.976;2022-12-20T01:38:28;9.27;;;7.70;;
14748;SDS011;7466;53.574;9.976;2022-12-20T01:40:55;9.23;;;8.37;;
14748;SDS011;7466;53.574;9.976;2022-12-20T01:43:22;9.10;;;8.30;;
14748;SDS011;7466;53.574;9.976;2022-12-20T01:45:51;11.03;;;7.77;;
14748;SDS011;7466;53.574;9.976;2022-12-20T01:48:19;8.93;;;8.10;;
14748;SDS011;7466;53.574;9.976;2022-12-20T01:50:50;11.50;;;7.83;;
14748;SDS011;7466;53.574;9.976;2022-12-20T01:53:17;8.63;;;7.33;;
14748;SDS011;7466;53.574;9.976;2022-12-20T01:55:47;8.83;;;7.63;;
14748;SDS011;7466;53.574;9.976;2022-12-20T01:58:14;8.13;;;7.33;;
14748;SDS011;7466;53.574;9.976;2022-12-20T02:00:43;9.43;;;7.67;;
14748;SDS011;7466;53.574;9.976;2022-12-20T02:03:14;8.40;;;7.53;;
14748;SDS011;7466;53.574;9.976;2022-12-20T02:05:43;8.03;;;7.23;;
14748;SDS011;7466;53.574;9.976;2022-12-20T02:08:11;10.03;;;7.80;;
14748;SDS011;7466;53.574;9.976;2022-12-20T02:10:45;9.40;;;7.07;;
14748;SDS011;7466;53.574;9.976;2022-12-20T02:13:26;7.77;;;6.97;;
14748;SDS011;7466;53.574;9.976;2022-12-20T02:16:01;8.37;;;7.37;;
14748;SDS011;7466;53.574;9.976;2022-12-20T02:18:32;8.17;;;7.40;;
14748;SDS011;7466;53.574;9.976;2022-12-20T02:26:58;8.50;;;7.40;;
14748;SDS011;7466;53.574;9.976;2022-12-20T02:29:56;8.63;;;6.83;;
14748;SDS011;7466;53.574;9.976;2022-12-20T02:32:33;11.07;;;6.90;;
14748;SDS011;7466;53.574;9.976;2022-12-20T02:35:06;8.03;;;7.23;;
14748;SDS011;7466;53.574;9.976;2022-12-20T02:37:35;9.03;;;7.53;;
14748;SDS011;7466;53.574;9.976;2022-12-20T02:40:02;8.80;;;7.90;;
14748;SDS011;7466;53.574;9.976;2022-12-20T02:42:31;9.47;;;7.87;;
14748;SDS011;7466;53.574;9.976;2022-12-20T02:45:01;8.97;;;7.50;;
14748;SDS011;7466;53.574;9.976;2022-12-20T02:47:44;7.90;;;7.00;;
14748;SDS011;7466;53.574;9.976;2022-12-20T02:50:17;9.57;;;7.40;;
14748;SDS011;7466;53.574;9.976;2022-12-20T02:52:47;8.37;;;7.03;;
14748;SDS011;7466;53.574;9.976;2022-12-20T02:55:16;9.60;;;6.90;;
14748;SDS011;7466;53.574;9.976;2022-12-20T02:57:44;8.50;;;7.50;;
14748;SDS011;7466;53.574;9.976;2022-12-20T03:00:17;7.03;;;6.37;;
14748;SDS011;7466;53.574;9.976;2022-12-20T03:02:46;7.80;;;6.43;;
14748;SDS011;7466;53.574;9.976;2022-12-20T03:05:33;7.23;;;6.57;;
14748;SDS011;7466;53.574;9.976;2022-12-20T03:08:03;9.33;;;6.63;;
14748;SDS011;7466;53.574;9.976;2022-12-20T03:10:30;6.80;;;6.20;;
14748;SDS011;7466;53.574;9.976;2022-12-20T03:12:56;7.93;;;6.70;;
14748;SDS011;7466;53.574;9.976;2022-12-20T03:15:25;9.23;;;6.40;;
14748;SDS011;7466;53.574;9.976;2022-12-20T03:17:51;7.23;;;6.53;;
14748;SDS011;7466;53.574;9.976;2022-12-20T03:20:18;8.97;;;6.73;;
14748;SDS011;7466;53.574;9.976;2022-12-20T03:22:46;7.33;;;6.23;;
14748;SDS011;7466;53.574;9.976;2022-12-20T03:25:12;7.17;;;6.47;;
14748;SDS011;7466;53.574;9.976;2022-12-20T03:27:39;8.07;;;6.40;;
14748;SDS011;7466;53.574;9.976;2022-12-20T03:30:10;6.63;;;6.13;;
14748;SDS011;7466;53.574;9.976;2022-12-20T03:32:39;7.60;;;6.03;;
14748;SDS011;7466;53.574;9.976;2022-12-20T03:35:06;9.03;;;5.90;;
14748;SDS011;7466;53.574;9.976;2022-12-20T03:37:33;6.57;;;5.97;;
14748;SDS011;7466;53.574;9.976;2022-12-20T03:40:00;7.33;;;6.10;;
14748;SDS011;7466;53.574;9.976;2022-12-20T03:42:30;6.57;;;6.03;;
14748;SDS011;7466;53.574;9.976;2022-12-20T03:44:57;5.97;;;5.30;;
14748;SDS011;7466;53.574;9.976;2022-12-20T03:47:24;6.43;;;5.83;;
14748;SDS011;7466;53.574;9.976;2022-12-20T03:49:52;5.87;;;5.37;;
14748;SDS011;7466;53.574;9.976;2022-12-20T03:52:19;5.93;;;5.33;;
14748;SDS011;7466;53.574;9.976;2022-12-20T03:54:46;6.50;;;5.30;;
14748;SDS011;7466;53.574;9.976;2022-12-20T03:57:13;6.50;;;5.90;;
14748;SDS011;7466;53.574;9.976;2022-12-20T03:59:40;6.23;;;5.60;;
14748;SDS011;7466;53.574;9.976;2022-12-20T04:02:08;6.20;;;5.67;;
14748;SDS011;7466;53.574;9.976;2022-12-20T04:04:35;6.37;;;5.77;;
14748;SDS011;7466;53.574;9.976;2022-12-20T04:07:03;6.53;;;5.47;;
14748;SDS011;7466;53.574;9.976;2022-12-20T04:09:30;6.83;;;5.60;;
14748;SDS011;7466;53.574;9.976;2022-12-20T04:11:56;6.43;;;5.27;;
14748;SDS011;7466;53.574;9.976;2022-12-20T04:14:23;7.67;;;4.80;;
14748;SDS011;7466;53.574;9.976;2022-12-20T04:16:50;5.80;;;5.20;;
14748;SDS011;7466;53.574;9.976;2022-12-20T04:19:16;5.80;;;5.27;;
14748;SDS011;7466;53.574;9.976;2022-12-20T04:21:43;5.33;;;4.83;;
14748;SDS011;7466;53.574;9.976;2022-12-20T04:24:11;5.73;;;5.23;;
14748;SDS011;7466;53.574;9.976;2022-12-20T04:26:38;6.83;;;4.93;;
14748;SDS011;7466;53.574;9.976;2022-12-20T04:29:05;5.27;;;4.77;;
14748;SDS011;7466;53.574;9.976;2022-12-20T04:31:31;5.50;;;4.93;;
14748;SDS011;7466;53.574;9.976;2022-12-20T04:33:58;5.03;;;4.53;;
14748;SDS011;7466;53.574;9.976;2022-12-20T04:36:25;5.27;;;4.87;;
14748;SDS011;7466;53.574;9.976;2022-12-20T04:38:52;5.30;;;4.47;;
14748;SDS011;7466;53.574;9.976;2022-12-20T04:41:20;5.13;;;4.63;;
14748;SDS011;7466;53.574;9.976;2022-12-20T04:43:51;6.23;;;4.60;;
14748;SDS011;7466;53.574;9.976;2022-12-20T04:46:19;5.50;;;5.00;;
14748;SDS011;7466;53.574;9.976;2022-12-20T04:48:47;5.40;;;4.87;;
14748;SDS011;7466;53.574;9.976;2022-12-20T04:51:14;4.80;;;4.40;;
14748;SDS011;7466;53.574;9.976;2022-12-20T04:53:41;5.33;;;4.70;;
14748;SDS011;7466;53.574;9.976;2022-12-20T04:56:16;5.10;;;4.60;;
14748;SDS011;7466;53.574;9.976;2022-12-20T04:58:46;5.30;;;4.57;;
14748;SDS011;7466;53.574;9.976;2022-12-20T05:01:15;8.73;;;5.00;;
14748;SDS011;7466;53.574;9.976;2022-12-20T05:03:42;5.20;;;4.70;;
14748;SDS011;7466;53.574;9.976;2022-12-20T05:06:09;5.87;;;5.00;;
14748;SDS011;7466;53.574;9.976;2022-12-20T05:08:36;5.07;;;4.67;;
14748;SDS011;7466;53.574;9.976;2022-12-20T05:11:03;6.40;;;5.03;;
14748;SDS011;7466;53.574;9.976;2022-12-20T05:13:30;6.10;;;5.60;;
14748;SDS011;7466;53.574;9.976;2022-12-20T05:15:59;5.80;;;5.23;;
14748;SDS011;7466;53.574;9.976;2022-12-20T05:18:27;8.50;;;6.03;;
14748;SDS011;7466;53.574;9.976;2022-12-20T05:20:55;5.73;;;5.20;;
14748;SDS011;7466;53.574;9.976;2022-12-20T05:23:40;6.47;;;5.87;;
14748;SDS011;7466;53.574;9.976;2022-12-20T05:26:25;8.23;;;5.97;;
14748;SDS011;7466;53.574;9.976;2022-12-20T05:28:54;6.03;;;5.53;;
14748;SDS011;7466;53.574;9.976;2022-12-20T05:31:22;7.80;;;5.30;;
14748;SDS011;7466;53.574;9.976;2022-12-20T05:33:48;6.30;;;5.43;;
14748;SDS011;7466;53.574;9.976;2022-12-20T05:36:15;6.30;;;5.70;;
14748;SDS011;7466;53.574;9.976;2022-12-20T05:38:42;7.67;;;5.47;;
14748;SDS011;7466;53.574;9.976;2022-12-20T05:41:09;5.90;;;5.30;;
14748;SDS011;7466;53.574;9.976;2022-12-20T05:43:36;7.70;;;5.67;;
14748;SDS011;7466;53.574;9.976;2022-12-20T05:46:03;6.80;;;5.87;;
14748;SDS011;7466;53.574;9.976;2022-12-20T05:48:31;5.20;;;4.80;;
14748;SDS011;7466;53.574;9.976;2022-12-20T05:50:58;10.57;;;5.70;;
14748;SDS011;7466;53.574;9.976;2022-12-20T05:53:25;7.07;;;5.43;;
14748;SDS011;7466;53.574;9.976;2022-12-20T05:55:52;6.77;;;5.17;;
14748;SDS011;7466;53.574;9.976;2022-12-20T05:58:19;6.17;;;5.67;;
14748;SDS011;7466;53.574;9.976;2022-12-20T06:00:46;6.23;;;5.30;;
14748;SDS011;7466;53.574;9.976;2022-12-20T06:03:13;7.43;;;5.30;;
14748;SDS011;7466;53.574;9.976;2022-12-20T06:05:42;6.13;;;5.40;;
14748;SDS011;7466;53.574;9.976;2022-12-20T06:08:09;5.83;;;5.23;;
14748;SDS011;7466;53.574;9.976;2022-12-20T06:10:37;6.23;;;5.67;;
14748;SDS011;7466;53.574;9.976;2022-12-20T06:13:05;6.23;;;5.63;;
14748;SDS011;7466;53.574;9.976;2022-12-20T06:15:33;8.93;;;6.43;;
14748;SDS011;7466;53.574;9.976;2022-12-20T06:18:00;6.53;;;5.93;;
14748;SDS011;7466;53.574;9.976;2022-12-20T06:20:27;7.10;;;6.00;;
14748;SDS011;7466;53.574;9.976;2022-12-20T06:22:56;7.87;;;6.20;;
14748;SDS011;7466;53.574;9.976;2022-12-20T06:25:23;7.00;;;6.30;;
14748;SDS011;7466;53.574;9.976;2022-12-20T06:27:51;7.03;;;6.40;;
14748;SDS011;7466;53.574;9.976;2022-12-20T06:30:18;6.93;;;6.33;;
14748;SDS011;7466;53.574;9.976;2022-12-20T06:32:45;7.13;;;6.40;;
14748;SDS011;7466;53.574;9.976;2022-12-20T06:35:11;7.00;;;6.30;;
14748;SDS011;7466;53.574;9.976;2022-12-20T06:37:39;9.73;;;7.07;;
14748;SDS011;7466;53.574;9.976;2022-12-20T06:40:08;7.23;;;6.53;;
14748;SDS011;7466;53.574;9.976;2022-12-20T06:42:35;8.63;;;6.30;;
14748;SDS011;7466;53.574;9.976;2022-12-20T06:45:02;8.73;;;6.73;;
14748;SDS011;7466;53.574;9.976;2022-12-20T06:47:30;7.37;;;5.97;;
14748;SDS011;7466;53.574;9.976;2022-12-20T06:49:57;6.50;;;5.90;;
14748;SDS011;7466;53.574;9.976;2022-12-20T06:52:24;7.23;;;5.93;;
14748;SDS011;7466;53.574;9.976;2022-12-20T06:54:51;5.93;;;5.50;;
14748;SDS011;7466;53.574;9.976;2022-12-20T06:57:19;7.37;;;5.97;;
14748;SDS011;7466;53.574;9.976;2022-12-20T06:59:46;8.73;;;5.97;;
14748;SDS011;7466;53.574;9.976;2022-12-20T07:02:12;8.57;;;5.87;;
14748;SDS011;7466;53.574;9.976;2022-12-20T07:04:39;7.77;;;5.80;;
14748;SDS011;7466;53.574;9.976;2022-12-20T07:07:06;6.70;;;6.10;;
14748;SDS011;7466;53.574;9.976;2022-12-20T07:09:33;9.33;;;5.83;;
14748;SDS011;7466;53.574;9.976;2022-12-20T07:12:05;7.37;;;6.17;;
14748;SDS011;7466;53.574;9.976;2022-12-20T07:14:33;7.07;;;6.33;;
14748;SDS011;7466;53.574;9.976;2022-12-20T07:17:00;6.83;;;6.27;;
14748;SDS011;7466;53.574;9.976;2022-12-20T07:19:28;8.43;;;6.47;;
14748;SDS011;7466;53.574;9.976;2022-12-20T07:21:54;7.80;;;7.10;;
14748;SDS011;7466;53.574;9.976;2022-12-20T07:24:21;10.93;;;6.90;;
14748;SDS011;7466;53.574;9.976;2022-12-20T07:26:48;8.03;;;7.30;;
14748;SDS011;7466;53.574;9.976;2022-12-20T07:29:15;7.90;;;7.10;;
14748;SDS011;7466;53.574;9.976;2022-12-20T07:31:43;8.23;;;7.53;;
14748;SDS011;7466;53.574;9.976;2022-12-20T07:34:10;8.70;;;7.67;;
14748;SDS011;7466;53.574;9.976;2022-12-20T07:36:37;8.80;;;7.90;;
14748;SDS011;7466;53.574;9.976;2022-12-20T07:39:04;10.03;;;8.03;;
14748;SDS011;7466;53.574;9.976;2022-12-20T07:41:31;7.93;;;7.30;;
14748;SDS011;7466;53.574;9.976;2022-12-20T07:43:57;8.47;;;7.47;;
14748;SDS011;7466;53.574;9.976;2022-12-20T07:46:24;8.90;;;7.93;;
14748;SDS011;7466;53.574;9.976;2022-12-20T07:48:53;8.50;;;7.37;;
14748;SDS011;7466;53.574;9.976;2022-12-20T07:51:22;8.03;;;7.33;;
14748;SDS011;7466;53.574;9.976;2022-12-20T07:53:51;8.97;;;8.07;;
14748;SDS011;7466;53.574;9.976;2022-12-20T07:56:24;13.90;;;7.97;;
14748;SDS011;7466;53.574;9.976;2022-12-20T07:58:51;9.73;;;7.90;;
14748;SDS011;7466;53.574;9.976;2022-12-20T08:01:22;9.67;;;7.73;;
14748;SDS011;7466;53.574;9.976;2022-12-20T08:03:53;10.40;;;8.23;;
14748;SDS011;7466;53.574;9.976;2022-12-20T08:06:23;8.73;;;7.83;;
14748;SDS011;7466;53.574;9.976;2022-12-20T08:08:52;8.83;;;7.70;;
14748;SDS011;7466;53.574;9.976;2022-12-20T08:11:22;8.53;;;7.73;;
14748;SDS011;7466;53.574;9.976;2022-12-20T08:13:51;10.93;;;7.50;;
14748;SDS011;7466;53.574;9.976;2022-12-20T08:16:18;8.00;;;7.20;;
14748;SDS011;7466;53.574;9.976;2022-12-20T08:18:45;8.90;;;8.00;;
14748;SDS011;7466;53.574;9.976;2022-12-20T08:21:13;8.67;;;7.77;;
14748;SDS011;7466;53.574;9.976;2022-12-20T08:23:40;8.33;;;7.53;;
14748;SDS011;7466;53.574;9.976;2022-12-20T08:26:06;7.63;;;6.93;;
14748;SDS011;7466;53.574;9.976;2022-12-20T08:28:34;8.13;;;7.30;;
14748;SDS011;7466;53.574;9.976;2022-12-20T08:31:01;9.00;;;7.73;;
14748;SDS011;7466;53.574;9.976;2022-12-20T08:33:29;7.47;;;6.77;;
14748;SDS011;7466;53.574;9.976;2022-12-20T08:35:56;8.13;;;7.10;;
14748;SDS011;7466;53.574;9.976;2022-12-20T08:38:25;9.47;;;7.07;;
14748;SDS011;7466;53.574;9.976;2022-12-20T08:40:53;7.87;;;6.43;;
14748;SDS011;7466;53.574;9.976;2022-12-20T08:43:20;6.50;;;5.90;;
14748;SDS011;7466;53.574;9.976;2022-12-20T08:45:50;7.67;;;6.00;;
14748;SDS011;7466;53.574;9.976;2022-12-20T08:48:18;6.83;;;6.07;;
14748;SDS011;7466;53.574;9.976;2022-12-20T08:50:45;6.50;;;5.87;;
14748;SDS011;7466;53.574;9.976;2022-12-20T08:53:12;6.63;;;6.03;;
14748;SDS011;7466;53.574;9.976;2022-12-20T08:55:40;8.40;;;6.30;;
14748;SDS011;7466;53.574;9.976;2022-12-20T08:58:07;6.97;;;6.27;;
14748;SDS011;7466;53.574;9.976;2022-12-20T09:00:34;6.57;;;5.90;;
14748;SDS011;7466;53.574;9.976;2022-12-20T09:03:01;6.33;;;5.63;;
14748;SDS011;7466;53.574;9.976;2022-12-20T09:05:28;6.70;;;6.00;;
14748;SDS011;7466;53.574;9.976;2022-12-20T09:07:54;6.53;;;5.93;;
14748;SDS011;7466;53.574;9.976;2022-12-20T09:10:21;6.17;;;5.53;;
14748;SDS011;7466;53.574;9.976;2022-12-20T09:12:49;9.77;;;5.87;;
14748;SDS011;7466;53.574;9.976;2022-12-20T09:15:18;6.63;;;5.97;;
14748;SDS011;7466;53.574;9.976;2022-12-20T09:17:45;6.60;;;6.00;;
14748;SDS011;7466;53.574;9.976;2022-12-20T09:20:12;6.33;;;5.70;;
14748;SDS011;7466;53.574;9.976;2022-12-20T09:22:39;8.17;;;6.30;;
14748;SDS011;7466;53.574;9.976;2022-12-20T09:25:06;7.33;;;5.70;;
14748;SDS011;7466;53.574;9.976;2022-12-20T09:27:34;6.17;;;5.47;;
14748;SDS011;7466;53.574;9.976;2022-12-20T09:30:02;6.73;;;5.63;;
14748;SDS011;7466;53.574;9.976;2022-12-20T09:32:29;6.30;;;5.60;;
14748;SDS011;7466;53.574;9.976;2022-12-20T09:34:56;6.57;;;5.93;;
14748;SDS011;7466;53.574;9.976;2022-12-20T09:37:23;7.33;;;6.33;;
14748;SDS011;7466;53.574;9.976;2022-12-20T09:39:49;6.53;;;5.53;;
14748;SDS011;7466;53.574;9.976;2022-12-20T09:42:16;6.60;;;6.00;;
14748;SDS011;7466;53.574;9.976;2022-12-20T09:44:47;6.67;;;6.07;;
14748;SDS011;7466;53.574;9.976;2022-12-20T09:47:18;6.83;;;6.23;;
14748;SDS011;7466;53.574;9.976;2022-12-20T09:49:48;6.77;;;6.17;;
14748;SDS011;7466;53.574;9.976;2022-12-20T09:52:24;6.63;;;6.03;;
14748;SDS011;7466;53.574;9.976;2022-12-20T09:54:57;7.00;;;6.33;;
14748;SDS011;7466;53.574;9.976;2022-12-20T09:57:32;6.97;;;6.37;;
14748;SDS011;7466;53.574;9.976;2022-12-20T10:00:10;6.93;;;6.23;;
14748;SDS011;7466;53.574;9.976;2022-12-20T10:02:40;7.20;;;6.50;;
14748;SDS011;7466;53.574;9.976;2022-12-20T10:05:10;7.60;;;6.90;;
14748;SDS011;7466;53.574;9.976;2022-12-20T10:07:41;8.17;;;6.80;;
14748;SDS011;7466;53.574;9.976;2022-12-20T10:10:18;7.60;;;7.00;;
14748;SDS011;7466;53.574;9.976;2022-12-20T10:13:10;9.47;;;7.13;;
14748;SDS011;7466;53.574;9.976;2022-12-20T10:15:45;8.13;;;7.30;;
14748;SDS011;7466;53.574;9.976;2022-12-20T10:18:30;9.27;;;7.77;;
14748;SDS011;7466;53.574;9.976;2022-12-20T10:21:10;9.30;;;7.07;;
14748;SDS011;7466;53.574;9.976;2022-12-20T10:23:44;8.37;;;7.67;;
14748;SDS011;7466;53.574;9.976;2022-12-20T10:26:21;11.97;;;7.70;;
14748;SDS011;7466;53.574;9.976;2022-12-20T10:28:48;7.83;;;7.17;;
14748;SDS011;7466;53.574;9.976;2022-12-20T10:31:15;7.40;;;6.70;;
14748;SDS011;7466;53.574;9.976;2022-12-20T10:33:44;6.87;;;6.27;;
14748;SDS011;7466;53.574;9.976;2022-12-20T10:36:22;7.63;;;6.47;;
14748;SDS011;7466;53.574;9.976;2022-12-20T10:38:51;6.73;;;6.00;;
14748;SDS011;7466;53.574;9.976;2022-12-20T10:41:20;7.33;;;5.87;;
14748;SDS011;7466;53.574;9.976;2022-12-20T10:43:51;6.27;;;5.67;;
14748;SDS011;7466;53.574;9.976;2022-12-20T10:46:33;6.27;;;5.60;;
14748;SDS011;7466;53.574;9.976;2022-12-20T10:51:53;6.07;;;5.40;;
14748;SDS011;7466;53.574;9.976;2022-12-20T10:54:21;7.00;;;5.47;;
14748;SDS011;7466;53.574;9.976;2022-12-20T10:56:53;5.60;;;5.20;;
14748;SDS011;7466;53.574;9.976;2022-12-20T10:59:24;5.50;;;5.00;;
14748;SDS011;7466;53.574;9.976;2022-12-20T11:01:56;5.33;;;4.93;;
14748;SDS011;7466;53.574;9.976;2022-12-20T11:04:26;5.93;;;5.10;;
14748;SDS011;7466;53.574;9.976;2022-12-20T11:06:55;7.27;;;5.40;;
14748;SDS011;7466;53.574;9.976;2022-12-20T11:09:27;5.20;;;4.70;;
14748;SDS011;7466;53.574;9.976;2022-12-20T11:11:59;7.33;;;4.97;;
14748;SDS011;7466;53.574;9.976;2022-12-20T11:14:28;5.37;;;4.93;;
14748;SDS011;7466;53.574;9.976;2022-12-20T11:16:56;5.57;;;4.70;;
14748;SDS011;7466;53.574;9.976;2022-12-20T11:19:32;6.17;;;4.77;;
14748;SDS011;7466;53.574;9.976;2022-12-20T11:22:24;4.70;;;4.30;;
14748;SDS011;7466;53.574;9.976;2022-12-20T11:25:02;5.17;;;4.67;;
14748;SDS011;7466;53.574;9.976;2022-12-20T11:27:39;5.23;;;4.47;;
14748;SDS011;7466;53.574;9.976;2022-12-20T11:30:15;5.00;;;4.50;;
14748;SDS011;7466;53.574;9.976;2022-12-20T11:32:49;7.20;;;4.00;;
14748;SDS011;7466;53.574;9.976;2022-12-20T11:35:35;5.27;;;4.47;;
14748;SDS011;7466;53.574;9.976;2022-12-20T11:38:11;4.37;;;3.97;;
14748;SDS011;7466;53.574;9.976;2022-12-20T11:40:46;4.70;;;4.30;;
14748;SDS011;7466;53.574;9.976;2022-12-20T11:43:29;5.70;;;4.77;;
14748;SDS011;7466;53.574;9.976;2022-12-20T11:46:10;4.70;;;4.10;;
14748;SDS011;7466;53.574;9.976;2022-12-20T11:48:52;5.63;;;4.10;;
14748;SDS011;7466;53.574;9.976;2022-12-20T11:51:44;6.07;;;4.40;;
14748;SDS011;7466;53.574;9.976;2022-12-20T11:54:13;4.30;;;3.90;;
14748;SDS011;7466;53.574;9.976;2022-12-20T11:56:47;5.17;;;4.63;;
14748;SDS011;7466;53.574;9.976;2022-12-20T11:59:18;6.03;;;4.07;;
14748;SDS011;7466;53.574;9.976;2022-12-20T12:01:50;5.40;;;4.20;;
14748;SDS011;7466;53.574;9.976;2022-12-20T12:04:20;4.33;;;3.93;;
14748;SDS011;7466;53.574;9.976;2022-12-20T12:06:54;5.47;;;4.43;;
14748;SDS011;7466;53.574;9.976;2022-12-20T12:09:26;5.83;;;4.63;;
14748;SDS011;7466;53.574;9.976;2022-12-20T12:11:59;4.87;;;4.40;;
14748;SDS011;7466;53.574;9.976;2022-12-20T12:14:32;5.10;;;4.60;;
14748;SDS011;7466;53.574;9.976;2022-12-20T12:17:17;5.27;;;3.90;;
14748;SDS011;7466;53.574;9.976;2022-12-20T12:19:50;4.30;;;3.83;;
14748;SDS011;7466;53.574;9.976;2022-12-20T12:22:23;4.77;;;4.10;;
14748;SDS011;7466;53.574;9.976;2022-12-20T12:24:56;5.63;;;4.90;;
14748;SDS011;7466;53.574;9.976;2022-12-20T12:27:27;5.27;;;4.53;;
14748;SDS011;7466;53.574;9.976;2022-12-20T12:29:54;4.90;;;4.40;;
14748;SDS011;7466;53.574;9.976;2022-12-20T12:32:25;5.43;;;4.70;;
14748;SDS011;7466;53.574;9.976;2022-12-20T12:35:00;4.83;;;4.43;;
14748;SDS011;7466;53.574;9.976;2022-12-20T12:37:50;6.70;;;4.30;;
14748;SDS011;7466;53.574;9.976;2022-12-20T12:40:29;5.17;;;4.60;;
14748;SDS011;7466;53.574;9.976;2022-12-20T12:43:17;6.70;;;5.20;;
14748;SDS011;7466;53.574;9.976;2022-12-20T12:46:08;4.90;;;4.50;;
14748;SDS011;7466;53.574;9.976;2022-12-20T12:48:38;6.93;;;5.23;;
14748;SDS011;7466;53.574;9.976;2022-12-20T12:51:07;5.87;;;5.40;;
14748;SDS011;7466;53.574;9.976;2022-12-20T12:53:40;5.87;;;5.37;;
14748;SDS011;7466;53.574;9.976;2022-12-20T12:59:22;10.53;;;5.80;;
14748;SDS011;7466;53.574;9.976;2022-12-20T13:02:25;7.40;;;5.23;;
14748;SDS011;7466;53.574;9.976;2022-12-20T13:05:00;8.80;;;5.70;;
14748;SDS011;7466;53.574;9.976;2022-12-20T13:07:42;6.50;;;5.90;;
14748;SDS011;7466;53.574;9.976;2022-12-20T13:13:17;7.03;;;5.47;;
14748;SDS011;7466;53.574;9.976;2022-12-20T13:15:51;8.17;;;5.97;;
14748;SDS011;7466;53.574;9.976;2022-12-20T13:18:34;7.30;;;6.17;;
14748;SDS011;7466;53.574;9.976;2022-12-20T13:27:03;6.47;;;5.77;;
14748;SDS011;7466;53.574;9.976;2022-12-20T13:29:51;7.90;;;6.30;;
14748;SDS011;7466;53.574;9.976;2022-12-20T13:35:41;8.60;;;6.50;;
14748;SDS011;7466;53.574;9.976;2022-12-20T13:38:36;7.07;;;6.33;;
14748;SDS011;7466;53.574;9.976;2022-12-20T13:41:30;6.70;;;5.77;;
14748;SDS011;7466;53.574;9.976;2022-12-20T13:44:18;6.17;;;5.63;;
14748;SDS011;7466;53.574;9.976;2022-12-20T13:47:01;6.63;;;5.43;;
14748;SDS011;7466;53.574;9.976;2022-12-20T13:49:43;7.03;;;6.40;;
14748;SDS011;7466;53.574;9.976;2022-12-20T13:52:20;9.00;;;5.87;;
14748;SDS011;7466;53.574;9.976;2022-12-20T13:54:52;6.83;;;5.80;;
14748;SDS011;7466;53.574;9.976;2022-12-20T13:57:25;6.77;;;6.17;;
14748;SDS011;7466;53.574;9.976;2022-12-20T13:59:55;7.50;;;5.83;;
14748;SDS011;7466;53.574;9.976;2022-12-20T14:02:27;8.13;;;6.37;;
14748;SDS011;7466;53.574;9.976;2022-12-20T14:04:58;7.00;;;6.40;;
14748;SDS011;7466;53.574;9.976;2022-12-20T14:07:27;8.83;;;6.13;;
14748;SDS011;7466;53.574;9.976;2022-12-20T14:09:58;6.97;;;5.80;;
14748;SDS011;7466;53.574;9.976;2022-12-20T14:12:26;6.77;;;6.07;;
14748;SDS011;7466;53.574;9.976;2022-12-20T14:14:55;6.80;;;6.20;;
14748;SDS011;7466;53.574;9.976;2022-12-20T14:17:23;6.87;;;6.20;;
14748;SDS011;7466;53.574;9.976;2022-12-20T14:20:02;6.87;;;6.17;;
14748;SDS011;7466;53.574;9.976;2022-12-20T14:22:31;10.10;;;6.33;;
14748;SDS011;7466;53.574;9.976;2022-12-20T14:25:00;7.67;;;6.67;;
14748;SDS011;7466;53.574;9.976;2022-12-20T14:27:32;6.57;;;6.07;;
14748;SDS011;7466;53.574;9.976;2022-12-20T14:30:01;7.00;;;6.30;;
14748;SDS011;7466;53.574;9.976;2022-12-20T14:32:31;7.70;;;6.90;;
14748;SDS011;7466;53.574;9.976;2022-12-20T14:34:57;7.83;;;6.37;;
14748;SDS011;7466;53.574;9.976;2022-12-20T14:37:30;7.43;;;6.40;;
14748;SDS011;7466;53.574;9.976;2022-12-20T14:39:59;9.47;;;6.37;;
14748;SDS011;7466;53.574;9.976;2022-12-20T14:42:31;7.80;;;6.90;;
14748;SDS011;7466;53.574;9.976;2022-12-20T14:45:04;6.90;;;6.20;;
14748;SDS011;7466;53.574;9.976;2022-12-20T14:47:46;7.23;;;6.53;;
14748;SDS011;7466;53.574;9.976;2022-12-20T14:50:17;8.93;;;6.77;;
14748;SDS011;7466;53.574;9.976;2022-12-20T14:52:46;8.80;;;7.20;;
14748;SDS011;7466;53.574;9.976;2022-12-20T14:55:14;7.97;;;7.27;;
14748;SDS011;7466;53.574;9.976;2022-12-20T14:57:44;7.87;;;7.07;;
14748;SDS011;7466;53.574;9.976;2022-12-20T15:00:18;8.43;;;7.57;;
14748;SDS011;7466;53.574;9.976;2022-12-20T15:02:49;9.27;;;7.30;;
14748;SDS011;7466;53.574;9.976;2022-12-20T15:05:37;11.47;;;7.07;;
14748;SDS011;7466;53.574;9.976;2022-12-20T15:08:11;8.57;;;7.50;;
14748;SDS011;7466;53.574;9.976;2022-12-20T15:10:39;8.17;;;7.13;;
14748;SDS011;7466;53.574;9.976;2022-12-20T15:13:09;8.70;;;7.93;;
14748;SDS011;7466;53.574;9.976;2022-12-20T15:15:38;9.63;;;7.90;;
14748;SDS011;7466;53.574;9.976;2022-12-20T15:18:09;8.20;;;7.40;;
14748;SDS011;7466;53.574;9.976;2022-12-20T15:20:38;8.63;;;7.83;;
14748;SDS011;7466;53.574;9.976;2022-12-20T15:23:08;9.27;;;7.73;;
14748;SDS011;7466;53.574;9.976;2022-12-20T15:25:42;8.77;;;7.90;;
14748;SDS011;7466;53.574;9.976;2022-12-20T15:28:18;9.17;;;8.27;;
14748;SDS011;7466;53.574;9.976;2022-12-20T15:30:46;10.13;;;8.17;;
14748;SDS011;7466;53.574;9.976;2022-12-20T15:33:15;8.60;;;7.70;;
14748;SDS011;7466;53.574;9.976;2022-12-20T15:35:43;10.23;;;7.67;;
14748;SDS011;7466;53.574;9.976;2022-12-20T15:38:12;10.20;;;7.73;;
14748;SDS011;7466;53.574;9.976;2022-12-20T15:40:42;9.80;;;7.63;;
14748;SDS011;7466;53.574;9.976;2022-12-20T15:43:14;10.37;;;8.03;;
14748;SDS011;7466;53.574;9.976;2022-12-20T15:45:45;9.60;;;8.47;;